createdAt,value
2022-07-25T00:00:29.969Z,19.60
2022-07-25T00:05:37.955Z,19.40
2022-07-25T00:10:41.216Z,19.30
2022-07-25T00:15:44.487Z,19.40
2022-07-25T00:20:48.932Z,19.40
2022-07-25T00:25:52.208Z,19.30
2022-07-25T00:30:55.888Z,19.40
2022-07-25T00:36:00.705Z,19.60
2022-07-25T00:41:04.198Z,19.40
2022-07-25T00:46:07.466Z,19.20
2022-07-25T00:51:15.981Z,19.10
2022-07-25T00:56:19.129Z,19.00
2022-07-25T01:01:22.232Z,19.10
2022-07-25T01:06:26.826Z,19.00
2022-07-25T01:11:32.043Z,18.80
2022-07-25T01:16:35.060Z,18.60
2022-07-25T01:21:40.681Z,18.50
2022-07-25T01:26:43.776Z,18.40
2022-07-25T01:31:47.046Z,18.40
2022-07-25T01:36:51.491Z,18.20
2022-07-25T01:41:54.701Z,18.10
2022-07-25T01:46:58.006Z,18.10
2022-07-25T01:52:03.160Z,18.20
2022-07-25T01:57:06.250Z,18.40
2022-07-25T02:02:09.382Z,18.30
2022-07-25T02:07:14.170Z,18.10
2022-07-25T02:12:17.236Z,17.90
2022-07-25T02:17:20.478Z,17.80
2022-07-25T02:22:25.038Z,17.70
2022-07-25T02:27:28.551Z,17.60
2022-07-25T02:32:31.599Z,17.50
2022-07-25T02:37:36.068Z,17.50
2022-07-25T02:42:39.230Z,17.50
2022-07-25T02:47:42.318Z,17.50
2022-07-25T02:52:46.911Z,17.50
2022-07-25T02:57:49.994Z,17.40
2022-07-25T03:02:53.079Z,17.40
2022-07-25T03:07:57.897Z,17.30
2022-07-25T03:13:01.017Z,17.40
2022-07-25T03:18:04.232Z,17.30
2022-07-25T03:23:08.708Z,17.50
2022-07-25T03:28:12.338Z,17.30
2022-07-25T03:33:15.879Z,17.20
2022-07-25T03:38:21.578Z,17.10
2022-07-25T03:43:25.577Z,17.10
2022-07-25T03:48:28.880Z,17.20
2022-07-25T03:53:33.371Z,17.10
2022-07-25T03:58:36.479Z,17.00
2022-07-25T04:03:39.740Z,16.90
2022-07-25T04:08:45.606Z,16.70
2022-07-25T04:13:48.660Z,16.80
2022-07-25T04:47:46.570Z,17.00
2022-07-25T04:52:49.727Z,17.10
2022-07-25T04:57:52.832Z,17.00
2022-07-25T05:02:58.045Z,17.00
2022-07-25T05:08:02.561Z,17.10
2022-07-25T05:13:05.684Z,17.20
2022-07-25T05:18:10.130Z,17.60
2022-07-25T05:23:13.505Z,17.80
2022-07-25T05:28:16.630Z,18.20
2022-07-25T05:33:21.063Z,18.40
2022-07-25T05:38:24.822Z,18.60
2022-07-25T05:43:28.040Z,18.70
2022-07-25T05:48:32.644Z,19.10
2022-07-25T05:53:35.721Z,19.10
2022-07-25T05:58:40.544Z,19.30
2022-07-25T06:03:45.006Z,19.40
2022-07-25T06:08:48.710Z,19.60
2022-07-25T06:13:51.827Z,19.90
2022-07-25T06:18:56.390Z,20.20
2022-07-25T06:23:59.647Z,20.60
2022-07-25T06:29:03.200Z,21.00
2022-07-25T06:34:08.286Z,21.40
2022-07-25T06:39:11.666Z,22.00
2022-07-25T06:44:14.904Z,22.50
2022-07-25T06:49:19.615Z,23.20
2022-07-25T06:54:22.828Z,23.70
2022-07-25T06:59:26.196Z,24.30
2022-07-25T07:04:30.955Z,24.50
2022-07-25T07:09:34.106Z,25.30
2022-07-25T07:14:37.762Z,25.80
2022-07-25T07:19:44.583Z,26.80
2022-07-25T07:24:48.228Z,27.60
2022-07-25T07:29:51.577Z,27.90
2022-07-25T07:34:56.631Z,26.80
2022-07-25T07:39:59.721Z,26.20
2022-07-25T07:45:02.820Z,26.90
2022-07-25T07:50:09.201Z,27.90
2022-07-25T07:55:30.341Z,28.50
2022-07-25T08:00:35.937Z,29.30
2022-07-25T08:05:42.112Z,30.10
2022-07-25T08:10:46.311Z,31.10
2022-07-25T08:15:52.806Z,30.00
2022-07-25T08:20:57.444Z,30.10
2022-07-25T08:26:00.736Z,30.50
2022-07-25T08:31:03.877Z,30.00
2022-07-25T08:36:10.930Z,30.10
2022-07-25T08:41:17.008Z,30.10
2022-07-25T08:46:28.860Z,31.20
2022-07-25T08:51:33.693Z,32.10
2022-07-25T08:56:37.100Z,31.50
2022-07-25T09:01:41.092Z,30.60
2022-07-25T09:06:51.782Z,31.70
2022-07-25T09:11:54.880Z,33.10
2022-07-25T09:16:57.983Z,32.50
2022-07-25T09:22:03.686Z,32.80
2022-07-25T09:27:12.517Z,33.00
2022-07-25T09:32:17.677Z,33.20
2022-07-25T09:37:27.631Z,32.60
2022-07-25T09:42:32.412Z,31.10
2022-07-25T09:47:36.798Z,30.60
2022-07-25T09:52:41.382Z,31.70
2022-07-25T09:57:46.107Z,32.50
2022-07-25T10:02:51.738Z,31.90
2022-07-25T10:07:57.519Z,32.10
2022-07-25T10:13:06.406Z,32.50
2022-07-25T10:18:13.417Z,32.50
2022-07-25T10:23:22.138Z,34.30
2022-07-25T10:28:25.180Z,33.80
2022-07-25T10:33:28.834Z,32.40
2022-07-25T10:38:34.023Z,30.80
2022-07-25T10:43:38.800Z,30.20
2022-07-25T10:48:42.202Z,28.50
2022-07-25T10:53:48.391Z,27.50
2022-07-25T10:58:54.854Z,27.70
2022-07-25T11:03:59.189Z,28.00
2022-07-25T11:09:04.214Z,28.20
2022-07-25T11:14:15.248Z,28.90
2022-07-25T11:19:21.114Z,29.10
2022-07-25T11:24:37.260Z,32.00
2022-07-25T11:29:40.541Z,31.40
2022-07-25T11:34:45.186Z,30.40
2022-07-25T11:39:50.202Z,31.00
2022-07-25T11:44:54.507Z,32.80
2022-07-25T11:49:59.175Z,33.40
2022-07-25T11:55:05.226Z,32.90
2022-07-25T12:00:11.585Z,32.70
2022-07-25T12:05:16.090Z,31.50
2022-07-25T12:10:24.165Z,31.70
2022-07-25T12:15:29.042Z,31.20
2022-07-25T12:20:33.527Z,31.90
2022-07-25T12:25:38.795Z,32.30
2022-07-25T12:30:42.891Z,33.70
2022-07-25T12:35:48.797Z,33.90
2022-07-25T12:40:53.587Z,33.50
2022-07-25T12:45:57.212Z,32.90
2022-07-25T12:51:00.366Z,32.90
2022-07-25T12:56:04.956Z,32.30
2022-07-25T13:01:08.159Z,32.50
2022-07-25T13:06:11.434Z,33.40
2022-07-25T13:11:15.993Z,33.20
2022-07-25T13:16:19.105Z,31.50
2022-07-25T13:21:22.694Z,31.00
2022-07-25T13:26:27.184Z,31.70
2022-07-25T13:31:30.337Z,31.20
2022-07-25T13:36:33.819Z,32.40
2022-07-25T13:41:38.211Z,33.30
2022-07-25T13:46:45.268Z,32.30
2022-07-25T13:51:49.750Z,32.90
2022-07-25T13:56:54.277Z,31.40
2022-07-25T14:01:57.481Z,30.80
2022-07-25T14:07:01.269Z,30.40
2022-07-25T14:12:10.306Z,30.40
2022-07-25T14:17:13.599Z,31.50
2022-07-25T14:22:17.215Z,30.40
2022-07-25T14:27:21.680Z,32.40
2022-07-25T14:32:25.211Z,31.20
2022-07-25T14:37:28.687Z,29.60
2022-07-25T14:42:33.328Z,29.30
2022-07-25T14:47:36.394Z,30.20
2022-07-25T14:52:39.513Z,30.60
2022-07-25T14:57:45.407Z,30.70
2022-07-25T15:02:48.703Z,31.60
2022-07-25T15:07:51.795Z,31.70
2022-07-25T15:13:13.991Z,31.40
2022-07-25T15:18:19.639Z,30.60
2022-07-25T15:23:24.744Z,29.20
2022-07-25T15:28:29.512Z,29.30
2022-07-25T15:33:32.561Z,29.10
2022-07-25T15:38:35.611Z,28.70
2022-07-25T15:43:40.065Z,29.90
2022-07-25T15:48:44.073Z,29.90
2022-07-25T15:53:47.407Z,30.30
2022-07-25T15:58:51.940Z,31.50
2022-07-25T16:03:55.383Z,30.90
2022-07-25T16:08:58.854Z,29.00
2022-07-25T16:14:03.334Z,29.00
2022-07-25T16:19:09.531Z,28.40
2022-07-25T16:24:13.047Z,27.70
2022-07-25T16:29:17.602Z,27.10
2022-07-25T16:34:28.651Z,26.50
2022-07-25T16:39:32.301Z,26.30
2022-07-25T16:44:36.850Z,26.20
2022-07-25T16:49:40.019Z,26.10
2022-07-25T16:54:43.185Z,26.30
2022-07-25T16:59:47.685Z,26.70
2022-07-25T17:04:50.874Z,26.30
2022-07-25T17:09:54.221Z,26.00
2022-07-25T17:14:58.588Z,26.60
2022-07-25T17:20:02.186Z,27.00
2022-07-25T17:25:06.308Z,26.00
2022-07-25T17:30:11.963Z,25.70
2022-07-25T17:35:16.207Z,25.90
2022-07-25T17:40:19.305Z,25.30
2022-07-25T17:45:24.326Z,25.40
2022-07-25T17:50:29.565Z,25.20
2022-07-25T17:55:38.244Z,25.10
2022-07-25T18:00:43.289Z,25.20
2022-07-25T18:05:46.770Z,25.10
2022-07-25T18:10:50.521Z,24.90
2022-07-25T18:15:55.125Z,24.70
2022-07-25T18:20:58.724Z,24.80
2022-07-25T18:26:02.034Z,25.10
2022-07-25T18:31:06.571Z,25.00
2022-07-25T18:36:10.079Z,24.90
2022-07-25T18:41:28.607Z,24.50
2022-07-25T18:46:34.010Z,24.40
2022-07-25T18:51:37.278Z,24.30
2022-07-25T18:56:40.395Z,24.20
2022-07-25T19:01:44.951Z,24.10
2022-07-25T19:06:48.189Z,24.10
2022-07-25T19:11:51.386Z,24.00
2022-07-25T19:16:57.580Z,23.90
2022-07-25T19:22:00.738Z,23.80
2022-07-25T19:27:05.148Z,23.70
2022-07-25T19:32:09.637Z,23.60
2022-07-25T19:37:13.583Z,23.50
2022-07-25T19:42:16.750Z,23.40
2022-07-25T19:47:21.518Z,23.40
2022-07-25T19:52:24.813Z,23.20
2022-07-25T19:57:28.105Z,23.10
2022-07-25T20:02:32.848Z,23.00
2022-07-25T20:07:36.084Z,23.00
2022-07-25T20:12:39.458Z,22.80
2022-07-25T20:17:43.977Z,22.70
2022-07-25T20:22:47.996Z,22.60
2022-07-25T20:27:51.650Z,22.50
2022-07-25T20:32:56.111Z,22.50
2022-07-25T20:38:01.587Z,22.50
2022-07-25T20:43:05.794Z,22.30
2022-07-25T20:48:10.769Z,22.10
2022-07-25T20:53:14.186Z,22.00
2022-07-25T20:58:17.319Z,21.90
2022-07-25T21:05:54.487Z,22.00
2022-07-25T21:10:58.793Z,21.90
2022-07-25T21:16:01.806Z,21.80
2022-07-25T21:21:11.734Z,21.60
2022-07-25T21:26:18.164Z,21.50
2022-07-25T21:31:24.427Z,21.40
2022-07-25T21:36:32.675Z,21.20
2022-07-25T21:41:35.835Z,21.00
2022-07-25T21:46:40.578Z,20.90
2022-07-25T21:51:47.354Z,20.70
2022-07-25T21:56:52.484Z,20.70
2022-07-25T22:01:56.695Z,20.80
2022-07-25T22:07:01.134Z,20.90
2022-07-25T22:12:04.473Z,21.00
2022-07-25T22:17:07.541Z,21.00
2022-07-25T22:22:12.394Z,20.90
2022-07-25T22:27:18.316Z,20.70
2022-07-25T22:32:22.126Z,20.50
2022-07-25T22:37:26.993Z,20.20
2022-07-25T22:42:35.858Z,20.10
2022-07-25T22:47:39.027Z,19.90
2022-07-25T22:52:43.437Z,19.80
2022-07-25T22:57:46.803Z,19.80
2022-07-25T23:02:50.387Z,19.90
2022-07-25T23:07:54.943Z,20.00
2022-07-25T23:12:57.970Z,19.80
2022-07-25T23:18:01.320Z,19.80
2022-07-25T23:23:06.065Z,19.50
2022-07-25T23:28:09.063Z,19.40
2022-07-25T23:33:12.483Z,19.50
2022-07-25T23:38:16.807Z,19.40
2022-07-25T23:43:24.754Z,19.50
2022-07-25T23:48:41.327Z,19.50
2022-07-25T23:53:45.879Z,19.40
2022-07-25T23:58:50.289Z,19.30
